sensor_id;sensor_type;location;lat;lon;timestamp;temperature;humidity
21121;DHT22;12519;43.318;21.898;2023-09-19T00:02:39;22.9;82.0
21121;DHT22;12519;43.318;21.898;2023-09-19T00:07:15;22.8;83.0
21121;DHT22;12519;43.318;21.898;2023-09-19T00:11:52;22.8;83.0
21121;DHT22;12519;43.318;21.898;2023-09-19T00:16:28;22.8;83.0
21121;DHT22;12519;43.318;21.898;2023-09-19T00:21:04;22.8;83.0
21121;DHT22;12519;43.318;21.898;2023-09-19T00:25:40;22.8;83.0
21121;DHT22;12519;43.318;21.898;2023-09-19T00:30:17;22.8;83.0
21121;DHT22;12519;43.318;21.898;2023-09-19T00:34:54;22.7;83.0
21121;DHT22;12519;43.318;21.898;2023-09-19T00:39:30;22.7;83.0
21121;DHT22;12519;43.318;21.898;2023-09-19T00:44:07;22.6;82.0
21121;DHT22;12519;43.318;21.898;2023-09-19T00:48:44;22.6;82.0
21121;DHT22;12519;43.318;21.898;2023-09-19T00:53:24;22.6;82.0
21121;DHT22;12519;43.318;21.898;2023-09-19T00:58:02;22.6;82.0
21121;DHT22;12519;43.318;21.898;2023-09-19T01:02:41;22.6;82.0
21121;DHT22;12519;43.318;21.898;2023-09-19T01:07:20;22.6;82.0
21121;DHT22;12519;43.318;21.898;2023-09-19T01:12:06;22.6;82.0
21121;DHT22;12519;43.318;21.898;2023-09-19T01:17:07;22.6;82.0
21121;DHT22;12519;43.318;21.898;2023-09-19T01:22:26;22.6;82.0
21121;DHT22;12519;43.318;21.898;2023-09-19T01:28:18;22.5;82.0
21121;DHT22;12519;43.318;21.898;2023-09-19T01:33:10;22.5;82.0
21121;DHT22;12519;43.318;21.898;2023-09-19T01:37:47;22.4;81.0
21121;DHT22;12519;43.318;21.898;2023-09-19T01:42:41;22.4;81.0
21121;DHT22;12519;43.318;21.898;2023-09-19T01:47:39;22.4;81.0
21121;DHT22;12519;43.318;21.898;2023-09-19T01:52:45;22.4;81.0
21121;DHT22;12519;43.318;21.898;2023-09-19T01:58:04;22.4;81.0
21121;DHT22;12519;43.318;21.898;2023-09-19T02:03:10;22.4;81.0
21121;DHT22;12519;43.318;21.898;2023-09-19T02:07:52;22.4;80.0
21121;DHT22;12519;43.318;21.898;2023-09-19T02:12:29;22.4;80.0
21121;DHT22;12519;43.318;21.898;2023-09-19T02:17:06;22.3;80.0
21121;DHT22;12519;43.318;21.898;2023-09-19T02:21:43;22.3;80.0
21121;DHT22;12519;43.318;21.898;2023-09-19T02:26:19;22.2;80.0
21121;DHT22;12519;43.318;21.898;2023-09-19T02:30:56;22.2;80.0
21121;DHT22;12519;43.318;21.898;2023-09-19T02:35:33;22.1;80.0
21121;DHT22;12519;43.318;21.898;2023-09-19T02:40:11;22.1;80.0
21121;DHT22;12519;43.318;21.898;2023-09-19T02:44:48;22.1;80.0
21121;DHT22;12519;43.318;21.898;2023-09-19T02:49:24;22.1;80.0
21121;DHT22;12519;43.318;21.898;2023-09-19T02:54:01;22.1;80.0
21121;DHT22;12519;43.318;21.898;2023-09-19T02:58:37;22.1;80.0
21121;DHT22;12519;43.318;21.898;2023-09-19T03:03:14;22.1;80.0
21121;DHT22;12519;43.318;21.898;2023-09-19T03:07:50;22.0;80.0
21121;DHT22;12519;43.318;21.898;2023-09-19T03:12:27;22.0;80.0
21121;DHT22;12519;43.318;21.898;2023-09-19T03:17:04;21.9;81.0
21121;DHT22;12519;43.318;21.898;2023-09-19T03:21:41;21.9;81.0
21121;DHT22;12519;43.318;21.898;2023-09-19T03:26:17;22.0;82.0
21121;DHT22;12519;43.318;21.898;2023-09-19T03:31:05;22.0;82.0
21121;DHT22;12519;43.318;21.898;2023-09-19T03:35:51;22.1;84.0
21121;DHT22;12519;43.318;21.898;2023-09-19T03:40:30;22.1;84.0
21121;DHT22;12519;43.318;21.898;2023-09-19T03:45:09;22.7;83.0
21121;DHT22;12519;43.318;21.898;2023-09-19T03:49:46;22.7;83.0
21121;DHT22;12519;43.318;21.898;2023-09-19T03:54:23;23.3;83.0
21121;DHT22;12519;43.318;21.898;2023-09-19T03:59:00;23.3;83.0
21121;DHT22;12519;43.318;21.898;2023-09-19T04:03:36;23.3;83.0
21121;DHT22;12519;43.318;21.898;2023-09-19T04:08:13;23.4;82.0
21121;DHT22;12519;43.318;21.898;2023-09-19T04:12:52;23.4;82.0
21121;DHT22;12519;43.318;21.898;2023-09-19T04:17:31;23.5;82.0
21121;DHT22;12519;43.318;21.898;2023-09-19T04:22:08;23.5;82.0
21121;DHT22;12519;43.318;21.898;2023-09-19T04:26:44;23.4;81.0
21121;DHT22;12519;43.318;21.898;2023-09-19T04:31:21;23.4;81.0
21121;DHT22;12519;43.318;21.898;2023-09-19T04:35:58;23.4;80.0
21121;DHT22;12519;43.318;21.898;2023-09-19T04:40:35;23.4;80.0
21121;DHT22;12519;43.318;21.898;2023-09-19T04:45:12;22.8;80.0
21121;DHT22;12519;43.318;21.898;2023-09-19T04:49:49;22.8;80.0
21121;DHT22;12519;43.318;21.898;2023-09-19T04:54:25;22.8;80.0
21121;DHT22;12519;43.318;21.898;2023-09-19T04:59:02;22.2;80.0
21121;DHT22;12519;43.318;21.898;2023-09-19T05:03:39;22.2;80.0
21121;DHT22;12519;43.318;21.898;2023-09-19T05:08:15;22.0;81.0
21121;DHT22;12519;43.318;21.898;2023-09-19T05:12:53;22.0;81.0
21121;DHT22;12519;43.318;21.898;2023-09-19T05:17:31;21.8;81.0
21121;DHT22;12519;43.318;21.898;2023-09-19T05:22:07;21.8;81.0
21121;DHT22;12519;43.318;21.898;2023-09-19T05:26:43;21.6;82.0
21121;DHT22;12519;43.318;21.898;2023-09-19T05:31:19;21.6;82.0
21121;DHT22;12519;43.318;21.898;2023-09-19T05:35:55;21.5;82.0
21121;DHT22;12519;43.318;21.898;2023-09-19T05:40:31;21.5;82.0
21121;DHT22;12519;43.318;21.898;2023-09-19T05:45:09;21.6;83.0
21121;DHT22;12519;43.318;21.898;2023-09-19T05:49:45;21.6;83.0
21121;DHT22;12519;43.318;21.898;2023-09-19T05:54:22;21.6;83.0
21121;DHT22;12519;43.318;21.898;2023-09-19T05:58:58;21.6;83.0
21121;DHT22;12519;43.318;21.898;2023-09-19T06:03:35;21.6;83.0
21121;DHT22;12519;43.318;21.898;2023-09-19T06:08:12;21.8;84.0
21121;DHT22;12519;43.318;21.898;2023-09-19T06:12:49;21.8;84.0
21121;DHT22;12519;43.318;21.898;2023-09-19T06:17:26;21.9;84.0
21121;DHT22;12519;43.318;21.898;2023-09-19T06:22:03;21.9;84.0
21121;DHT22;12519;43.318;21.898;2023-09-19T06:26:39;22.2;83.0
21121;DHT22;12519;43.318;21.898;2023-09-19T06:31:16;22.2;83.0
21121;DHT22;12519;43.318;21.898;2023-09-19T06:35:53;22.4;83.0
21121;DHT22;12519;43.318;21.898;2023-09-19T06:40:30;22.4;83.0
21121;DHT22;12519;43.318;21.898;2023-09-19T06:45:09;22.4;82.0
21121;DHT22;12519;43.318;21.898;2023-09-19T06:49:46;22.4;82.0
21121;DHT22;12519;43.318;21.898;2023-09-19T06:54:22;22.4;82.0
21121;DHT22;12519;43.318;21.898;2023-09-19T06:58:59;22.5;82.0
21121;DHT22;12519;43.318;21.898;2023-09-19T07:03:35;22.5;82.0
21121;DHT22;12519;43.318;21.898;2023-09-19T07:08:11;22.6;83.0
21121;DHT22;12519;43.318;21.898;2023-09-19T07:12:56;22.6;83.0
21121;DHT22;12519;43.318;21.898;2023-09-19T07:17:34;22.6;84.0
21121;DHT22;12519;43.318;21.898;2023-09-19T07:22:11;22.6;84.0
21121;DHT22;12519;43.318;21.898;2023-09-19T07:26:47;23.2;83.0
21121;DHT22;12519;43.318;21.898;2023-09-19T07:31:24;23.2;83.0
21121;DHT22;12519;43.318;21.898;2023-09-19T07:36:00;23.7;82.0
21121;DHT22;12519;43.318;21.898;2023-09-19T07:40:36;23.7;82.0
21121;DHT22;12519;43.318;21.898;2023-09-19T07:45:13;24.0;82.0
21121;DHT22;12519;43.318;21.898;2023-09-19T07:49:50;24.0;82.0
21121;DHT22;12519;43.318;21.898;2023-09-19T07:54:26;24.0;82.0
21121;DHT22;12519;43.318;21.898;2023-09-19T07:59:03;24.2;81.0
21121;DHT22;12519;43.318;21.898;2023-09-19T08:03:40;24.2;81.0
21121;DHT22;12519;43.318;21.898;2023-09-19T08:08:16;24.0;81.0
21121;DHT22;12519;43.318;21.898;2023-09-19T08:12:52;24.0;81.0
21121;DHT22;12519;43.318;21.898;2023-09-19T08:17:33;23.9;81.0
21121;DHT22;12519;43.318;21.898;2023-09-19T08:22:10;23.9;81.0
21121;DHT22;12519;43.318;21.898;2023-09-19T08:26:47;23.8;82.0
21121;DHT22;12519;43.318;21.898;2023-09-19T08:31:23;23.8;82.0
21121;DHT22;12519;43.318;21.898;2023-09-19T08:36:00;23.6;82.0
21121;DHT22;12519;43.318;21.898;2023-09-19T08:40:38;23.6;82.0
21121;DHT22;12519;43.318;21.898;2023-09-19T08:45:15;23.8;82.0
21121;DHT22;12519;43.318;21.898;2023-09-19T08:50:19;23.8;82.0
21121;DHT22;12519;43.318;21.898;2023-09-19T08:55:13;24.0;82.0
21121;DHT22;12519;43.318;21.898;2023-09-19T08:59:52;24.0;82.0
21121;DHT22;12519;43.318;21.898;2023-09-19T09:04:33;24.0;82.0
21121;DHT22;12519;43.318;21.898;2023-09-19T09:09:11;24.4;81.0
21121;DHT22;12519;43.318;21.898;2023-09-19T09:13:48;24.4;81.0
21121;DHT22;12519;43.318;21.898;2023-09-19T09:18:25;24.8;80.0
21121;DHT22;12519;43.318;21.898;2023-09-19T09:23:01;24.8;80.0
21121;DHT22;12519;43.318;21.898;2023-09-19T09:27:40;24.7;80.0
21121;DHT22;12519;43.318;21.898;2023-09-19T09:32:23;24.7;80.0
21121;DHT22;12519;43.318;21.898;2023-09-19T09:37:03;24.6;80.0
21121;DHT22;12519;43.318;21.898;2023-09-19T09:41:40;24.6;80.0
21121;DHT22;12519;43.318;21.898;2023-09-19T09:46:22;24.7;80.0
21121;DHT22;12519;43.318;21.898;2023-09-19T09:50:59;24.7;80.0
21121;DHT22;12519;43.318;21.898;2023-09-19T09:56:01;24.8;80.0
21121;DHT22;12519;43.318;21.898;2023-09-19T10:00:53;24.8;80.0
21121;DHT22;12519;43.318;21.898;2023-09-19T10:05:33;24.8;80.0
21121;DHT22;12519;43.318;21.898;2023-09-19T10:10:10;24.8;80.0
21121;DHT22;12519;43.318;21.898;2023-09-19T10:14:48;24.8;80.0
21121;DHT22;12519;43.318;21.898;2023-09-19T10:19:37;24.8;80.0
21121;DHT22;12519;43.318;21.898;2023-09-19T10:24:36;24.8;80.0
21121;DHT22;12519;43.318;21.898;2023-09-19T10:29:19;25.0;79.0
21121;DHT22;12519;43.318;21.898;2023-09-19T10:34:04;25.0;79.0
21121;DHT22;12519;43.318;21.898;2023-09-19T10:38:50;25.2;78.0
21121;DHT22;12519;43.318;21.898;2023-09-19T10:43:33;25.2;78.0
21121;DHT22;12519;43.318;21.898;2023-09-19T10:48:10;25.3;79.0
21121;DHT22;12519;43.318;21.898;2023-09-19T10:52:48;25.3;79.0
21121;DHT22;12519;43.318;21.898;2023-09-19T10:57:30;25.4;80.0
21121;DHT22;12519;43.318;21.898;2023-09-19T11:02:18;25.4;80.0
21121;DHT22;12519;43.318;21.898;2023-09-19T11:07:06;25.8;80.0
21121;DHT22;12519;43.318;21.898;2023-09-19T11:11:50;25.8;80.0
21121;DHT22;12519;43.318;21.898;2023-09-19T11:16:27;26.2;79.0
21121;DHT22;12519;43.318;21.898;2023-09-19T11:21:52;26.2;79.0
21121;DHT22;12519;43.318;21.898;2023-09-19T11:26:45;26.6;78.0
21121;DHT22;12519;43.318;21.898;2023-09-19T11:31:44;26.6;78.0
21121;DHT22;12519;43.318;21.898;2023-09-19T11:36:35;27.0;77.0
21121;DHT22;12519;43.318;21.898;2023-09-19T11:41:43;27.0;77.0
21121;DHT22;12519;43.318;21.898;2023-09-19T11:46:21;27.2;76.0
21121;DHT22;12519;43.318;21.898;2023-09-19T11:50:58;27.2;76.0
21121;DHT22;12519;43.318;21.898;2023-09-19T11:55:37;27.4;75.0
21121;DHT22;12519;43.318;21.898;2023-09-19T12:00:18;27.4;75.0
21121;DHT22;12519;43.318;21.898;2023-09-19T12:04:54;27.4;75.0
21121;DHT22;12519;43.318;21.898;2023-09-19T12:09:32;27.5;74.0
21121;DHT22;12519;43.318;21.898;2023-09-19T12:14:09;27.5;74.0
21121;DHT22;12519;43.318;21.898;2023-09-19T12:18:46;27.6;73.0
21121;DHT22;12519;43.318;21.898;2023-09-19T12:23:24;27.6;73.0
21121;DHT22;12519;43.318;21.898;2023-09-19T12:28:00;27.7;73.0
21121;DHT22;12519;43.318;21.898;2023-09-19T12:32:37;27.7;73.0
21121;DHT22;12519;43.318;21.898;2023-09-19T12:37:16;27.8;73.0
21121;DHT22;12519;43.318;21.898;2023-09-19T12:41:54;27.8;73.0
21121;DHT22;12519;43.318;21.898;2023-09-19T12:46:31;27.8;73.0
21121;DHT22;12519;43.318;21.898;2023-09-19T12:51:11;27.8;73.0
21121;DHT22;12519;43.318;21.898;2023-09-19T12:55:59;27.9;73.0
21121;DHT22;12519;43.318;21.898;2023-09-19T13:00:41;27.9;73.0
21121;DHT22;12519;43.318;21.898;2023-09-19T13:05:48;28.2;72.0
21121;DHT22;12519;43.318;21.898;2023-09-19T13:10:30;28.2;72.0
21121;DHT22;12519;43.318;21.898;2023-09-19T13:15:08;28.2;72.0
21121;DHT22;12519;43.318;21.898;2023-09-19T13:19:51;28.4;72.0
21121;DHT22;12519;43.318;21.898;2023-09-19T13:24:28;28.4;72.0
21121;DHT22;12519;43.318;21.898;2023-09-19T13:29:04;28.4;72.0
21121;DHT22;12519;43.318;21.898;2023-09-19T13:33:45;28.4;72.0
21121;DHT22;12519;43.318;21.898;2023-09-19T13:38:23;28.4;72.0
21121;DHT22;12519;43.318;21.898;2023-09-19T13:42:59;28.4;72.0
21121;DHT22;12519;43.318;21.898;2023-09-19T13:47:35;28.4;72.0
21121;DHT22;12519;43.318;21.898;2023-09-19T13:52:11;28.4;72.0
21121;DHT22;12519;43.318;21.898;2023-09-19T13:56:48;28.3;72.0
21121;DHT22;12519;43.318;21.898;2023-09-19T14:01:24;28.3;72.0
21121;DHT22;12519;43.318;21.898;2023-09-19T14:06:01;28.2;72.0
21121;DHT22;12519;43.318;21.898;2023-09-19T14:10:37;28.2;72.0
21121;DHT22;12519;43.318;21.898;2023-09-19T14:15:14;28.2;72.0
21121;DHT22;12519;43.318;21.898;2023-09-19T14:19:50;28.1;72.0
21121;DHT22;12519;43.318;21.898;2023-09-19T14:24:27;28.1;72.0
21121;DHT22;12519;43.318;21.898;2023-09-19T14:29:03;28.0;72.0
21121;DHT22;12519;43.318;21.898;2023-09-19T14:33:41;28.0;72.0
21121;DHT22;12519;43.318;21.898;2023-09-19T14:38:17;27.9;72.0
21121;DHT22;12519;43.318;21.898;2023-09-19T14:42:54;27.9;72.0
21121;DHT22;12519;43.318;21.898;2023-09-19T14:47:31;27.8;73.0
21121;DHT22;12519;43.318;21.898;2023-09-19T14:52:11;27.8;73.0
21121;DHT22;12519;43.318;21.898;2023-09-19T14:56:48;27.7;73.0
21121;DHT22;12519;43.318;21.898;2023-09-19T15:01:24;27.7;73.0
21121;DHT22;12519;43.318;21.898;2023-09-19T15:06:05;27.6;75.0
21121;DHT22;12519;43.318;21.898;2023-09-19T15:10:50;27.6;75.0
21121;DHT22;12519;43.318;21.898;2023-09-19T15:15:27;27.6;75.0
21121;DHT22;12519;43.318;21.898;2023-09-19T15:20:07;27.5;76.0
21121;DHT22;12519;43.318;21.898;2023-09-19T15:24:46;27.5;76.0
21121;DHT22;12519;43.318;21.898;2023-09-19T15:29:22;27.3;76.0
21121;DHT22;12519;43.318;21.898;2023-09-19T15:33:59;27.3;76.0
21121;DHT22;12519;43.318;21.898;2023-09-19T15:39:08;27.1;77.0
21121;DHT22;12519;43.318;21.898;2023-09-19T15:43:45;27.1;77.0
21121;DHT22;12519;43.318;21.898;2023-09-19T15:48:22;27.0;78.0
21121;DHT22;12519;43.318;21.898;2023-09-19T15:52:58;27.0;78.0
21121;DHT22;12519;43.318;21.898;2023-09-19T15:57:38;26.8;79.0
21121;DHT22;12519;43.318;21.898;2023-09-19T16:02:15;26.8;79.0
21121;DHT22;12519;43.318;21.898;2023-09-19T16:06:51;26.6;79.0
21121;DHT22;12519;43.318;21.898;2023-09-19T16:11:28;26.6;79.0
21121;DHT22;12519;43.318;21.898;2023-09-19T16:16:04;26.4;79.0
21121;DHT22;12519;43.318;21.898;2023-09-19T16:20:41;26.4;79.0
21121;DHT22;12519;43.318;21.898;2023-09-19T16:25:17;26.4;79.0
21121;DHT22;12519;43.318;21.898;2023-09-19T16:29:53;26.2;80.0
21121;DHT22;12519;43.318;21.898;2023-09-19T16:34:29;26.2;80.0
21121;DHT22;12519;43.318;21.898;2023-09-19T16:39:06;26.0;81.0
21121;DHT22;12519;43.318;21.898;2023-09-19T16:43:42;26.0;81.0
21121;DHT22;12519;43.318;21.898;2023-09-19T16:48:19;26.0;81.0
21121;DHT22;12519;43.318;21.898;2023-09-19T16:52:56;26.0;81.0
21121;DHT22;12519;43.318;21.898;2023-09-19T16:57:32;26.0;81.0
21121;DHT22;12519;43.318;21.898;2023-09-19T17:02:09;26.0;81.0
21121;DHT22;12519;43.318;21.898;2023-09-19T17:06:45;25.6;83.0
21121;DHT22;12519;43.318;21.898;2023-09-19T17:11:21;25.6;83.0
21121;DHT22;12519;43.318;21.898;2023-09-19T17:16:02;25.1;86.0
21121;DHT22;12519;43.318;21.898;2023-09-19T17:20:45;25.1;86.0
21121;DHT22;12519;43.318;21.898;2023-09-19T17:25:22;25.1;86.0
21121;DHT22;12519;43.318;21.898;2023-09-19T17:29:58;24.6;89.0
21121;DHT22;12519;43.318;21.898;2023-09-19T17:34:35;24.6;89.0
21121;DHT22;12519;43.318;21.898;2023-09-19T17:39:11;24.0;92.0
21121;DHT22;12519;43.318;21.898;2023-09-19T17:43:55;24.0;92.0
21121;DHT22;12519;43.318;21.898;2023-09-19T17:48:35;23.8;93.0
21121;DHT22;12519;43.318;21.898;2023-09-19T17:53:12;23.8;93.0
21121;DHT22;12519;43.318;21.898;2023-09-19T17:57:49;23.6;94.0
21121;DHT22;12519;43.318;21.898;2023-09-19T18:02:25;23.6;94.0
21121;DHT22;12519;43.318;21.898;2023-09-19T18:07:03;23.4;95.0
21121;DHT22;12519;43.318;21.898;2023-09-19T18:11:41;23.4;95.0
21121;DHT22;12519;43.318;21.898;2023-09-19T18:16:17;23.2;96.0
21121;DHT22;12519;43.318;21.898;2023-09-19T18:20:59;23.2;96.0
21121;DHT22;12519;43.318;21.898;2023-09-19T18:25:37;23.2;96.0
21121;DHT22;12519;43.318;21.898;2023-09-19T18:30:14;23.2;95.0
21121;DHT22;12519;43.318;21.898;2023-09-19T18:34:50;23.2;95.0
21121;DHT22;12519;43.318;21.898;2023-09-19T18:39:27;23.3;94.0
21121;DHT22;12519;43.318;21.898;2023-09-19T18:44:05;23.3;94.0
21121;DHT22;12519;43.318;21.898;2023-09-19T18:48:44;23.0;94.0
21121;DHT22;12519;43.318;21.898;2023-09-19T18:53:20;23.0;94.0
21121;DHT22;12519;43.318;21.898;2023-09-19T18:57:57;22.6;95.0
21121;DHT22;12519;43.318;21.898;2023-09-19T19:02:33;22.6;95.0
21121;DHT22;12519;43.318;21.898;2023-09-19T19:07:09;22.4;96.0
21121;DHT22;12519;43.318;21.898;2023-09-19T19:11:45;22.4;96.0
21121;DHT22;12519;43.318;21.898;2023-09-19T19:16:22;22.1;97.0
21121;DHT22;12519;43.318;21.898;2023-09-19T19:21:01;22.1;97.0
21121;DHT22;12519;43.318;21.898;2023-09-19T19:25:47;22.1;97.0
21121;DHT22;12519;43.318;21.898;2023-09-19T19:30:23;22.2;97.0
21121;DHT22;12519;43.318;21.898;2023-09-19T19:35:00;22.2;97.0
21121;DHT22;12519;43.318;21.898;2023-09-19T19:39:36;22.2;97.0
21121;DHT22;12519;43.318;21.898;2023-09-19T19:44:14;22.2;97.0
21121;DHT22;12519;43.318;21.898;2023-09-19T19:48:51;22.3;97.0
21121;DHT22;12519;43.318;21.898;2023-09-19T19:53:27;22.3;97.0
21121;DHT22;12519;43.318;21.898;2023-09-19T19:58:04;22.4;96.0
21121;DHT22;12519;43.318;21.898;2023-09-19T20:02:44;22.4;96.0
21121;DHT22;12519;43.318;21.898;2023-09-19T20:07:20;22.5;96.0
21121;DHT22;12519;43.318;21.898;2023-09-19T20:11:56;22.5;96.0
21121;DHT22;12519;43.318;21.898;2023-09-19T20:16:33;22.7;95.0
21121;DHT22;12519;43.318;21.898;2023-09-19T20:21:11;22.7;95.0
21121;DHT22;12519;43.318;21.898;2023-09-19T20:25:49;22.7;95.0
21121;DHT22;12519;43.318;21.898;2023-09-19T20:30:25;22.4;96.0
21121;DHT22;12519;43.318;21.898;2023-09-19T20:35:02;22.4;96.0
21121;DHT22;12519;43.318;21.898;2023-09-19T20:39:43;22.2;97.0
21121;DHT22;12519;43.318;21.898;2023-09-19T20:44:19;22.2;97.0
21121;DHT22;12519;43.318;21.898;2023-09-19T20:48:56;21.8;98.0
21121;DHT22;12519;43.318;21.898;2023-09-19T20:53:32;21.8;98.0
21121;DHT22;12519;43.318;21.898;2023-09-19T20:58:12;21.5;100.0
21121;DHT22;12519;43.318;21.898;2023-09-19T21:02:48;21.5;100.0
21121;DHT22;12519;43.318;21.898;2023-09-19T21:07:25;21.6;100.0
21121;DHT22;12519;43.318;21.898;2023-09-19T21:12:01;21.6;100.0
21121;DHT22;12519;43.318;21.898;2023-09-19T21:16:38;21.8;100.0
21121;DHT22;12519;43.318;21.898;2023-09-19T21:21:15;21.8;100.0
21121;DHT22;12519;43.318;21.898;2023-09-19T21:25:54;21.8;100.0
21121;DHT22;12519;43.318;21.898;2023-09-19T21:30:30;22.0;99.0
21121;DHT22;12519;43.318;21.898;2023-09-19T21:35:08;22.0;99.0
21121;DHT22;12519;43.318;21.898;2023-09-19T21:39:44;22.2;99.0
21121;DHT22;12519;43.318;21.898;2023-09-19T21:44:20;22.2;99.0
21121;DHT22;12519;43.318;21.898;2023-09-19T21:48:56;22.2;99.0
21121;DHT22;12519;43.318;21.898;2023-09-19T21:53:34;22.2;99.0
21121;DHT22;12519;43.318;21.898;2023-09-19T21:58:11;22.2;99.0
21121;DHT22;12519;43.318;21.898;2023-09-19T22:02:47;22.2;99.0
21121;DHT22;12519;43.318;21.898;2023-09-19T22:07:24;22.0;99.0
21121;DHT22;12519;43.318;21.898;2023-09-19T22:12:00;22.0;99.0
21121;DHT22;12519;43.318;21.898;2023-09-19T22:16:36;21.9;100.0
21121;DHT22;12519;43.318;21.898;2023-09-19T22:21:16;21.9;100.0
21121;DHT22;12519;43.318;21.898;2023-09-19T22:25:55;21.9;100.0
21121;DHT22;12519;43.318;21.898;2023-09-19T22:30:37;21.8;100.0
21121;DHT22;12519;43.318;21.898;2023-09-19T22:35:15;21.8;100.0
21121;DHT22;12519;43.318;21.898;2023-09-19T22:39:52;21.6;100.0
21121;DHT22;12519;43.318;21.898;2023-09-19T22:44:29;21.6;100.0
21121;DHT22;12519;43.318;21.898;2023-09-19T22:49:05;21.5;100.0
21121;DHT22;12519;43.318;21.898;2023-09-19T22:53:41;21.5;100.0
21121;DHT22;12519;43.318;21.898;2023-09-19T22:58:18;21.4;100.0
21121;DHT22;12519;43.318;21.898;2023-09-19T23:02:55;21.4;100.0
21121;DHT22;12519;43.318;21.898;2023-09-19T23:07:31;21.4;100.0
21121;DHT22;12519;43.318;21.898;2023-09-19T23:12:08;21.4;100.0
21121;DHT22;12519;43.318;21.898;2023-09-19T23:16:44;21.3;100.0
21121;DHT22;12519;43.318;21.898;2023-09-19T23:21:21;21.3;100.0
21121;DHT22;12519;43.318;21.898;2023-09-19T23:25:58;21.3;100.0
21121;DHT22;12519;43.318;21.898;2023-09-19T23:30:34;21.2;100.0
21121;DHT22;12519;43.318;21.898;2023-09-19T23:35:10;21.2;100.0
21121;DHT22;12519;43.318;21.898;2023-09-19T23:39:47;21.2;100.0
21121;DHT22;12519;43.318;21.898;2023-09-19T23:44:23;21.2;100.0
21121;DHT22;12519;43.318;21.898;2023-09-19T23:49:00;21.2;100.0
21121;DHT22;12519;43.318;21.898;2023-09-19T23:53:36;21.2;100.0
21121;DHT22;12519;43.318;21.898;2023-09-19T23:58:13;21.2;100.0
